Time;durP1;ratioP1;P1;durP2;ratioP2;P2;SDS_P1;SDS_P2;PMS_P1;PMS_P2;Temp;Humidity;BMP_temperature;BMP_pressure;BME280_temperature;BME280_humidity;BME280_pressure;Samples;Min_cycle;Max_cycle;Signal;HPM_P1;HPM_P2
2022/07/31 00:02:02;;;;;;;8.13;6.43;;;;;;;19.31;74.81;101020.19;5058253;28;20325;-83
2022/07/31 00:04:30;;;;;;;6.80;5.97;;;;;;;19.31;74.76;101022.06;5055430;28;20291;-81
2022/07/31 00:06:57;;;;;;;7.37;6.73;;;;;;;19.30;75.01;101012.25;5057569;28;20221;-81
2022/07/31 00:09:23;;;;;;;7.10;6.37;;;;;;;19.29;74.77;101026.75;5066921;28;20205;-83
2022/07/31 00:11:50;;;;;;;9.50;6.90;;;;;;;19.28;75.04;101025.03;5068762;28;20740;-83
2022/07/31 00:14:16;;;;;;;7.17;6.47;;;;;;;19.26;74.85;101027.03;5071428;28;20215;-81
2022/07/31 00:16:43;;;;;;;6.90;6.20;;;;;;;19.25;74.59;101012.66;5067217;28;20700;-82
2022/07/31 00:19:09;;;;;;;8.60;6.03;;;;;;;19.23;75.00;101021.91;5060684;28;20204;-81
2022/07/31 00:21:37;;;;;;;8.57;6.70;;;;;;;19.21;74.95;101024.75;5067724;28;20218;-81
2022/07/31 00:24:05;;;;;;;8.70;6.77;;;;;;;19.19;74.96;101029.44;5068209;28;20210;-81
2022/07/31 00:26:31;;;;;;;6.57;5.97;;;;;;;19.17;75.00;101041.41;5068667;28;20218;-83
2022/07/31 00:28:58;;;;;;;7.07;6.47;;;;;;;19.15;75.20;101040.69;5064209;28;20732;-81
2022/07/31 00:31:24;;;;;;;7.00;6.50;;;;;;;19.12;75.29;101033.72;5066597;28;20223;-81
2022/07/31 00:33:51;;;;;;;6.40;5.83;;;;;;;19.10;75.29;101038.41;5060426;28;20212;-82
2022/07/31 00:36:17;;;;;;;6.63;6.03;;;;;;;19.07;75.27;101030.59;5064585;28;20200;-81
2022/07/31 00:38:45;;;;;;;6.67;6.13;;;;;;;19.03;75.26;101024.63;5054921;28;20211;-81
2022/07/31 00:41:12;;;;;;;5.67;5.17;;;;;;;19.04;75.51;101025.47;5061629;28;20688;-82
2022/07/31 00:43:38;;;;;;;6.97;5.67;;;;;;;19.01;75.65;101023.91;5062191;28;20214;-82
2022/07/31 00:46:05;;;;;;;7.57;5.90;;;;;;;19.01;75.60;101012.25;5063112;28;20238;-82
2022/07/31 00:48:32;;;;;;;6.17;5.57;;;;;;;19.00;75.52;101014.09;5068173;28;20209;-82
2022/07/31 00:50:59;;;;;;;6.50;5.83;;;;;;;19.00;75.58;101026.75;5068052;28;20241;-82
2022/07/31 00:53:25;;;;;;;6.10;5.50;;;;;;;18.99;75.56;101025.88;5070238;28;20294;-85
2022/07/31 00:55:53;;;;;;;9.40;5.80;;;;;;;18.99;75.66;101020.50;5053303;28;20221;-81
2022/07/31 00:58:20;;;;;;;5.33;4.93;;;;;;;18.99;75.66;101023.19;5063390;28;20210;-82
2022/07/31 01:00:47;;;;;;;6.60;5.90;;;;;;;18.99;75.85;101014.25;5070045;28;20231;-82
2022/07/31 01:03:14;;;;;;;6.23;5.43;;;;;;;18.99;75.52;101014.25;5062440;28;20214;-82
2022/07/31 01:05:41;;;;;;;5.77;5.27;;;;;;;18.98;75.61;101012.56;5061702;28;20297;-82
2022/07/31 01:08:07;;;;;;;5.50;5.10;;;;;;;18.98;75.68;101012.56;5065077;28;20578;-83
2022/07/31 01:10:42;;;;;;;6.17;5.57;;;;;;;18.99;75.54;101019.63;5064090;28;20623;-82
2022/07/31 01:13:20;;;;;;;5.43;4.93;;;;;;;18.98;75.66;101018.81;5057238;28;20203;-81
2022/07/31 01:15:48;;;;;;;6.27;5.67;;;;;;;18.98;75.59;101024.22;5065708;28;20199;-82
2022/07/31 01:18:16;;;;;;;5.40;4.90;;;;;;;18.96;75.67;101014.56;5056223;28;20301;-81
2022/07/31 01:20:46;;;;;;;5.70;5.20;;;;;;;18.95;75.73;101018.25;5060767;28;20216;-82
2022/07/31 01:23:36;;;;;;;5.57;5.03;;;;;;;18.96;75.57;101019.94;5058024;28;20199;-81
2022/07/31 01:26:12;;;;;;;5.53;5.03;;;;;;;18.93;75.57;101010.28;5058082;28;20219;-82
2022/07/31 01:29:00;;;;;;;5.17;4.77;;;;;;;18.94;75.29;101000.34;5058754;28;20209;-82
2022/07/31 01:31:33;;;;;;;4.90;4.50;;;;;;;18.92;75.39;101007.72;5059218;28;20230;-82
2022/07/31 01:34:05;;;;;;;5.20;4.70;;;;;;;18.93;75.34;101009.44;5061231;28;20203;-82
2022/07/31 01:36:34;;;;;;;4.90;4.60;;;;;;;18.92;75.46;101005.03;5052935;28;20198;-82
2022/07/31 01:39:02;;;;;;;6.60;4.90;;;;;;;18.92;75.38;101005.03;5066369;28;20220;-82
2022/07/31 01:41:33;;;;;;;5.67;5.13;;;;;;;18.92;75.30;101013.13;5062450;28;20318;-83
2022/07/31 01:44:04;;;;;;;5.90;5.30;;;;;;;18.92;75.47;101016.66;5062474;28;20212;-82
2022/07/31 01:46:33;;;;;;;6.30;5.10;;;;;;;18.93;75.37;101012.97;5060622;28;20591;-83
2022/07/31 01:49:01;;;;;;;6.40;5.60;;;;;;;18.94;75.30;101011.13;5052499;28;20654;-82
2022/07/31 01:51:30;;;;;;;5.90;5.20;;;;;;;18.92;75.25;101013.97;5060859;28;20243;-82
2022/07/31 01:53:58;;;;;;;5.97;5.33;;;;;;;18.92;75.36;101008.56;5054684;28;20201;-82
2022/07/31 01:56:26;;;;;;;5.77;5.20;;;;;;;18.92;75.21;101007.72;5063077;28;20202;-82
2022/07/31 01:58:55;;;;;;;5.53;4.50;;;;;;;18.87;74.90;101007.28;5062759;28;20218;-83
2022/07/31 02:01:25;;;;;;;5.87;4.87;;;;;;;18.84;74.73;101003.03;5063254;28;20227;-83
2022/07/31 02:03:53;;;;;;;5.77;5.13;;;;;;;18.80;74.63;101003.47;5058832;28;20199;-82
2022/07/31 02:06:22;;;;;;;6.77;5.40;;;;;;;18.75;74.43;101005.72;5064231;28;20223;-83
2022/07/31 02:08:52;;;;;;;6.67;5.77;;;;;;;18.66;74.29;101005.56;5060763;28;20219;-82
2022/07/31 02:11:20;;;;;;;6.53;5.93;;;;;;;18.60;74.52;101006.16;5059822;28;20224;-83
2022/07/31 02:13:48;;;;;;;6.70;6.10;;;;;;;18.53;74.55;101002.25;5063712;28;20247;-83
2022/07/31 02:16:17;;;;;;;7.53;5.87;;;;;;;18.51;75.09;101006.09;5060121;28;20202;-82
2022/07/31 02:18:46;;;;;;;7.23;6.53;;;;;;;18.48;75.40;101017.16;5062000;28;20775;-83
2022/07/31 02:21:13;;;;;;;6.50;6.00;;;;;;;18.48;75.70;101009.91;5063176;28;20227;-84
2022/07/31 02:23:40;;;;;;;5.90;5.33;;;;;;;18.48;75.70;101011.75;5064924;28;20212;-83
2022/07/31 02:26:07;;;;;;;5.93;5.43;;;;;;;18.49;75.71;101011.63;5061577;28;20834;-83
2022/07/31 02:28:36;;;;;;;7.60;4.37;;;;;;;18.48;75.82;101009.91;5066835;28;20231;-82
2022/07/31 02:31:05;;;;;;;4.90;4.40;;;;;;;18.47;75.82;101002.81;5058572;28;20230;-83
2022/07/31 02:33:32;;;;;;;4.93;4.53;;;;;;;18.47;75.86;101012.75;5065859;28;20852;-82
2022/07/31 02:36:02;;;;;;;4.83;4.43;;;;;;;18.45;75.83;101012.06;5061246;28;20199;-83
2022/07/31 02:38:32;;;;;;;6.40;4.67;;;;;;;18.42;75.85;101013.19;5066369;28;20210;-83
2022/07/31 02:41:02;;;;;;;5.13;4.47;;;;;;;18.39;76.15;101013.47;5059106;28;20295;-83
2022/07/31 02:43:32;;;;;;;5.07;4.57;;;;;;;18.34;75.73;101013.00;5068552;28;20209;-82
2022/07/31 02:45:59;;;;;;;4.33;3.93;;;;;;;18.27;76.02;101006.47;5060978;28;20266;-85
2022/07/31 02:48:26;;;;;;;4.37;3.97;;;;;;;18.22;76.26;101003.34;5064507;28;20603;-84
2022/07/31 02:50:53;;;;;;;5.00;4.60;;;;;;;18.18;76.65;101002.75;5071346;28;20253;-84
2022/07/31 02:53:22;;;;;;;4.47;4.17;;;;;;;18.17;76.69;100994.81;5060789;28;20291;-83
2022/07/31 02:55:50;;;;;;;4.77;4.33;;;;;;;18.14;76.89;101003.16;5062903;28;20194;-82
2022/07/31 02:58:17;;;;;;;4.87;4.10;;;;;;;18.09;76.51;101000.91;5073116;28;20251;-83
2022/07/31 03:00:44;;;;;;;3.47;3.17;;;;;;;18.01;76.06;101009.66;5067650;28;20226;-82
2022/07/31 03:03:11;;;;;;;4.20;3.80;;;;;;;17.94;75.86;101008.47;5067939;28;20295;-82
2022/07/31 03:05:37;;;;;;;5.10;4.00;;;;;;;17.86;75.44;101008.31;5066563;28;20211;-82
2022/07/31 03:08:04;;;;;;;4.67;3.90;;;;;;;17.80;75.36;101005.31;5063169;28;20217;-81
2022/07/31 03:10:32;;;;;;;3.10;2.90;;;;;;;17.76;75.14;101002.00;5063823;28;20226;-83
2022/07/31 03:13:00;;;;;;;5.10;3.40;;;;;;;17.70;75.09;100997.19;5063829;28;20206;-83
2022/07/31 03:15:29;;;;;;;3.20;3.00;;;;;;;17.64;74.78;100997.72;5065822;28;20198;-83
2022/07/31 03:17:55;;;;;;;3.63;3.07;;;;;;;17.58;74.80;100996.38;5055600;28;20216;-81
2022/07/31 03:20:23;;;;;;;3.13;2.90;;;;;;;17.54;74.70;100994.09;5061802;28;20224;-82
2022/07/31 03:22:50;;;;;;;3.80;3.40;;;;;;;17.50;74.83;100990.81;5068663;28;20208;-82
2022/07/31 03:25:17;;;;;;;3.93;3.60;;;;;;;17.49;75.09;100993.63;5062895;28;20196;-82
2022/07/31 03:27:46;;;;;;;4.23;3.63;;;;;;;17.47;75.17;100998.28;5063508;28;20228;-82
2022/07/31 03:30:17;;;;;;;4.07;3.67;;;;;;;17.45;75.43;100987.66;5067516;28;20232;-82
2022/07/31 03:32:44;;;;;;;8.40;3.90;;;;;;;17.45;75.70;100992.19;5058865;28;20288;-82
2022/07/31 03:35:10;;;;;;;4.83;4.40;;;;;;;17.45;75.95;100987.66;5057170;28;20312;-83
2022/07/31 03:37:37;;;;;;;4.60;4.20;;;;;;;17.45;76.22;100984.09;5060280;28;20206;-82
2022/07/31 03:40:04;;;;;;;4.77;4.07;;;;;;;17.44;75.83;100982.41;5062900;28;20222;-81
2022/07/31 03:42:31;;;;;;;4.20;3.80;;;;;;;17.37;75.11;100986.63;5057376;28;20580;-81
2022/07/31 03:45:00;;;;;;;4.70;4.27;;;;;;;17.29;75.02;100988.13;5065379;28;20201;-82
2022/07/31 03:47:26;;;;;;;5.53;4.07;;;;;;;17.22;75.16;100980.69;5060924;28;20597;-81
2022/07/31 03:49:53;;;;;;;4.23;3.83;;;;;;;17.19;75.12;100984.53;5067094;28;20225;-81
2022/07/31 03:52:20;;;;;;;4.33;3.90;;;;;;;17.15;75.45;100984.91;5062153;28;20681;-81
2022/07/31 03:54:47;;;;;;;6.43;3.97;;;;;;;17.11;75.50;100986.16;5063068;28;20218;-82
2022/07/31 03:57:15;;;;;;;4.40;4.00;;;;;;;17.10;75.74;100981.75;5064889;28;20285;-82
2022/07/31 03:59:42;;;;;;;5.57;4.70;;;;;;;17.07;75.83;100998.16;5061053;28;20212;-81
2022/07/31 04:02:10;;;;;;;6.80;4.90;;;;;;;17.02;75.63;100985.09;5066711;28;20230;-81
2022/07/31 04:04:38;;;;;;;6.63;4.30;;;;;;;16.96;75.92;100983.78;5066794;28;20208;-82
2022/07/31 04:07:05;;;;;;;5.37;4.77;;;;;;;16.92;76.19;100989.56;5063982;28;20747;-81
2022/07/31 04:09:31;;;;;;;5.23;4.73;;;;;;;16.87;76.22;100983.69;5064578;28;20661;-81
2022/07/31 04:11:58;;;;;;;4.83;4.43;;;;;;;16.83;76.49;100990.34;5068498;28;20211;-82
2022/07/31 04:14:24;;;;;;;5.97;5.03;;;;;;;16.79;76.98;100986.19;5066548;28;20201;-83
2022/07/31 04:16:51;;;;;;;5.57;4.90;;;;;;;16.79;77.82;100988.88;5064056;28;20214;-82
2022/07/31 04:19:19;;;;;;;5.43;4.87;;;;;;;16.81;78.22;100986.94;5069592;28;20290;-82
2022/07/31 04:21:46;;;;;;;6.30;5.63;;;;;;;16.82;78.51;100984.13;5063263;28;20272;-83
2022/07/31 04:24:17;;;;;;;6.40;5.83;;;;;;;16.85;79.15;100989.22;5065764;28;20222;-83
2022/07/31 04:26:43;;;;;;;6.27;5.67;;;;;;;16.88;79.70;100985.41;5069001;28;20232;-82
2022/07/31 04:29:10;;;;;;;6.57;6.07;;;;;;;16.90;80.14;100991.53;5056734;28;20210;-82
2022/07/31 04:31:37;;;;;;;7.07;6.43;;;;;;;16.92;80.21;100985.03;5073260;28;20235;-83
2022/07/31 04:34:03;;;;;;;6.80;6.30;;;;;;;16.95;80.80;100994.69;5066233;28;20213;-85
2022/07/31 04:36:31;;;;;;;8.30;6.87;;;;;;;16.96;81.25;100985.63;5063383;28;20203;-82
2022/07/31 04:38:58;;;;;;;6.90;6.30;;;;;;;16.97;81.70;100988.19;5074510;28;20210;-83
2022/07/31 04:41:24;;;;;;;6.33;5.73;;;;;;;16.99;81.70;100986.22;5060790;28;20228;-81
2022/07/31 04:43:51;;;;;;;7.93;6.47;;;;;;;17.00;82.31;100981.72;5074028;28;20208;-82
2022/07/31 04:46:18;;;;;;;7.40;6.70;;;;;;;17.01;82.98;100978.03;5059517;28;20318;-84
2022/07/31 04:48:44;;;;;;;7.37;6.50;;;;;;;17.02;82.92;100975.19;5067257;28;20218;-83
2022/07/31 04:51:16;;;;;;;6.57;6.07;;;;;;;17.05;83.26;100978.59;5068760;28;20220;-83
2022/07/31 04:53:44;;;;;;;8.00;7.20;;;;;;;17.07;83.47;100990.09;5070591;28;20238;-82
2022/07/31 04:58:55;;;;;;;6.10;5.70;;;;;;;17.12;84.11;100987.88;5072158;28;20208;-83
2022/07/31 05:01:22;;;;;;;6.83;6.23;;;;;;;17.12;84.01;100980.66;5069753;28;20224;-83
2022/07/31 05:03:48;;;;;;;7.07;6.40;;;;;;;17.13;84.28;100987.75;5074657;28;20965;-85
2022/07/31 05:06:15;;;;;;;7.60;6.90;;;;;;;17.16;84.51;100990.19;5069794;28;20208;-84
2022/07/31 05:08:42;;;;;;;7.17;6.20;;;;;;;17.18;84.67;100990.03;5070349;28;20238;-83
2022/07/31 05:11:22;;;;;;;7.07;6.37;;;;;;;17.20;84.93;100990.75;5064731;28;20229;-81
2022/07/31 05:13:48;;;;;;;6.77;6.10;;;;;;;17.24;85.01;100997.56;5074885;28;20208;-83
2022/07/31 05:16:15;;;;;;;6.30;5.80;;;;;;;17.26;85.23;101001.00;5072195;28;20202;-84
2022/07/31 05:18:44;;;;;;;5.87;5.37;;;;;;;17.29;85.17;101003.44;5069908;28;20620;-84
2022/07/31 05:21:10;;;;;;;6.60;6.00;;;;;;;17.32;85.32;101001.34;5069566;28;20255;-82
2022/07/31 05:23:37;;;;;;;6.03;5.57;;;;;;;17.35;85.55;101001.06;5062230;28;20573;-83
2022/07/31 05:26:04;;;;;;;6.67;6.10;;;;;;;17.39;85.76;100995.41;5066993;28;20637;-83
2022/07/31 05:28:31;;;;;;;7.33;6.73;;;;;;;17.43;85.62;100997.69;5069306;28;21015;-82
2022/07/31 05:30:58;;;;;;;7.30;6.47;;;;;;;17.46;85.73;101000.13;5070484;28;20277;-83
2022/07/31 05:33:25;;;;;;;7.37;6.50;;;;;;;17.49;85.67;100990.94;5073898;28;20630;-84
2022/07/31 05:35:51;;;;;;;7.80;7.03;;;;;;;17.52;85.66;100988.00;5067258;28;20309;-83
2022/07/31 05:38:18;;;;;;;7.60;6.80;;;;;;;17.54;85.67;100997.66;5067482;28;20230;-85
2022/07/31 05:40:47;;;;;;;8.33;7.50;;;;;;;17.57;85.75;100986.56;5073093;28;20625;-83
2022/07/31 05:43:14;;;;;;;7.47;6.87;;;;;;;17.59;85.69;100979.22;5071166;28;20202;-83
2022/07/31 05:45:42;;;;;;;7.43;6.63;;;;;;;17.62;85.57;100980.78;5062131;28;20200;-83
2022/07/31 05:48:09;;;;;;;7.80;6.73;;;;;;;17.64;85.76;100978.84;5068142;28;20228;-83
2022/07/31 05:50:35;;;;;;;7.97;6.30;;;;;;;17.68;85.76;100974.91;5057429;28;20227;-84
2022/07/31 05:53:02;;;;;;;6.73;6.23;;;;;;;17.71;85.65;100980.03;5064322;28;20197;-83
2022/07/31 05:55:28;;;;;;;5.97;5.47;;;;;;;17.74;85.74;100981.59;5072143;28;20267;-83
2022/07/31 05:57:55;;;;;;;7.00;6.40;;;;;;;17.77;85.67;100986.69;5067476;28;20577;-83
2022/07/31 06:00:21;;;;;;;6.77;6.07;;;;;;;17.80;85.64;100978.34;5066148;28;20214;-83
2022/07/31 06:02:49;;;;;;;7.80;6.77;;;;;;;17.82;85.29;100971.84;5064276;28;20218;-82
2022/07/31 06:05:16;;;;;;;8.37;6.97;;;;;;;17.84;85.20;100971.72;5063195;28;20198;-84
2022/07/31 06:07:45;;;;;;;7.30;6.60;;;;;;;17.89;85.34;100981.09;5061815;28;20243;-83
2022/07/31 06:10:11;;;;;;;6.77;6.17;;;;;;;17.95;85.59;100975.16;5060919;28;20766;-84
2022/07/31 06:12:38;;;;;;;6.97;6.37;;;;;;;18.01;85.36;100969.22;5055388;28;20204;-84
2022/07/31 06:15:05;;;;;;;7.07;6.47;;;;;;;18.08;85.28;100974.06;5062895;28;20696;-83
2022/07/31 06:17:32;;;;;;;6.73;6.17;;;;;;;18.14;85.46;100968.13;5055346;28;20202;-86
2022/07/31 06:20:00;;;;;;;7.40;6.47;;;;;;;18.20;85.13;100962.19;5065009;28;20221;-83
2022/07/31 06:22:26;;;;;;;6.70;6.20;;;;;;;18.28;84.95;100970.41;5064510;28;20201;-85
2022/07/31 06:24:58;;;;;;;8.37;6.33;;;;;;;18.33;84.73;100963.63;5061276;28;20582;-83
2022/07/31 06:27:28;;;;;;;6.83;6.33;;;;;;;18.40;84.42;100961.22;5063211;28;20283;-83
2022/07/31 06:29:55;;;;;;;6.43;5.83;;;;;;;18.48;84.32;100957.81;5064044;28;20787;-83
2022/07/31 06:32:22;;;;;;;6.53;5.93;;;;;;;18.54;83.89;100959.97;5064100;28;20296;-83
2022/07/31 06:34:48;;;;;;;7.00;6.43;;;;;;;18.61;83.50;100962.00;5060503;28;20213;-84
2022/07/31 06:37:16;;;;;;;6.47;5.87;;;;;;;18.69;83.23;100969.38;5067325;28;20206;-83
2022/07/31 06:39:42;;;;;;;6.80;5.80;;;;;;;18.79;83.35;100966.69;5068606;28;20212;-84
2022/07/31 06:42:09;;;;;;;7.13;6.43;;;;;;;18.91;82.95;100955.59;5067303;28;20207;-84
2022/07/31 06:44:35;;;;;;;6.90;6.30;;;;;;;19.01;82.54;100961.81;5065329;28;20206;-85
2022/07/31 06:47:02;;;;;;;6.00;5.40;;;;;;;19.10;82.07;100962.81;5062339;28;20646;-83
2022/07/31 06:49:29;;;;;;;7.33;6.17;;;;;;;19.18;81.46;100960.22;5063532;28;20208;-84
2022/07/31 06:51:55;;;;;;;6.20;5.70;;;;;;;19.26;81.00;100956.81;5066886;28;20817;-85
2022/07/31 06:54:23;;;;;;;9.70;6.00;;;;;;;19.33;81.06;100958.81;5062443;28;20208;-84
2022/07/31 06:56:49;;;;;;;5.73;5.07;;;;;;;19.42;80.87;100966.00;5067512;28;20570;-82
2022/07/31 06:59:16;;;;;;;6.40;5.80;;;;;;;19.51;80.67;100964.31;5060817;28;20204;-83
2022/07/31 07:01:43;;;;;;;5.53;4.97;;;;;;;19.60;80.36;100966.13;5061606;28;20758;-82
2022/07/31 07:04:09;;;;;;;5.67;5.23;;;;;;;19.68;80.01;100962.69;5057178;28;20223;-84
2022/07/31 07:06:36;;;;;;;5.17;4.80;;;;;;;19.77;79.54;100967.19;5058673;28;20204;-85
2022/07/31 07:09:02;;;;;;;5.00;4.60;;;;;;;19.85;78.81;100958.34;5062542;28;20598;-85
2022/07/31 07:11:30;;;;;;;5.63;5.20;;;;;;;19.93;78.36;100967.41;5062702;28;20239;-83
2022/07/31 07:13:56;;;;;;;8.00;5.20;;;;;;;20.02;77.83;100960.25;5060390;28;20573;-83
2022/07/31 07:16:23;;;;;;;5.37;4.87;;;;;;;20.10;77.06;100963.06;5061932;28;20223;-84
2022/07/31 07:18:50;;;;;;;5.07;4.67;;;;;;;20.20;77.07;100963.00;5061721;28;20210;-83
2022/07/31 07:21:17;;;;;;;5.30;4.40;;;;;;;20.30;76.52;100961.09;5064551;28;20223;-83
2022/07/31 07:23:43;;;;;;;7.00;4.67;;;;;;;20.41;76.12;100947.38;5068049;28;20218;-84
2022/07/31 07:26:10;;;;;;;6.07;4.50;;;;;;;20.53;75.17;100950.72;5064272;28;20206;-83
2022/07/31 07:28:38;;;;;;;5.10;4.70;;;;;;;20.63;74.37;100959.59;5071703;28;20232;-83
2022/07/31 07:31:05;;;;;;;4.65;4.10;;;;;;;20.72;74.00;100958.69;5066695;28;20226;-83
2022/07/31 07:33:32;;;;;;;4.50;4.13;;;;;;;20.83;73.58;100960.28;5064117;28;20212;-83
2022/07/31 07:35:59;;;;;;;4.50;3.97;;;;;;;20.93;72.84;100956.50;5066928;28;20206;-84
2022/07/31 07:38:25;;;;;;;6.00;4.17;;;;;;;21.03;71.99;100948.28;5070267;28;20294;-86
2022/07/31 07:40:52;;;;;;;5.18;3.42;;;;;;;21.13;71.48;100944.47;5064888;28;20748;-86
2022/07/31 07:43:18;;;;;;;4.35;3.30;;;;;;;21.26;70.83;100940.53;5071630;28;20311;-86
2022/07/31 07:45:46;;;;;;;4.03;3.63;;;;;;;21.36;70.14;100933.97;5062528;28;20207;-84
2022/07/31 07:48:13;;;;;;;3.65;3.00;;;;;;;21.51;69.55;100946.94;5069678;28;20225;-85
2022/07/31 07:50:40;;;;;;;5.30;3.47;;;;;;;21.65;68.84;100943.66;5069797;28;20235;-84
2022/07/31 07:53:07;;;;;;;3.10;2.78;;;;;;;21.78;67.41;100947.59;5066328;28;20219;-86
2022/07/31 07:55:34;;;;;;;2.88;2.60;;;;;;;21.89;65.41;100943.75;5066555;28;20255;-83
2022/07/31 07:58:00;;;;;;;3.97;3.00;;;;;;;21.99;64.38;100944.47;5064196;28;20571;-84
2022/07/31 08:00:27;;;;;;;3.03;2.30;;;;;;;22.12;63.52;100935.91;5067664;28;20232;-84
2022/07/31 08:02:55;;;;;;;4.93;2.90;;;;;;;22.29;62.24;100924.06;5065644;28;20346;-86
2022/07/31 08:05:21;;;;;;;3.25;2.88;;;;;;;22.44;60.61;100916.13;5068214;28;20201;-85
2022/07/31 08:07:48;;;;;;;3.28;2.90;;;;;;;22.60;59.58;100923.44;5064909;28;20231;-85
2022/07/31 08:10:18;;;;;;;2.92;2.47;;;;;;;22.74;58.23;100914.63;5071018;28;20229;-84
2022/07/31 08:12:45;;;;;;;4.53;2.33;;;;;;;22.88;57.40;100907.69;5065079;28;20675;-85
2022/07/31 08:15:12;;;;;;;4.00;2.50;;;;;;;23.00;56.55;100906.31;5075661;28;20204;-85
2022/07/31 08:17:38;;;;;;;3.72;2.53;;;;;;;23.12;56.52;100894.06;5066670;28;20268;-85
2022/07/31 08:20:07;;;;;;;4.18;2.47;;;;;;;23.26;55.12;100898.81;5063242;28;20232;-85
2022/07/31 08:22:34;;;;;;;5.82;2.65;;;;;;;23.37;54.54;100894.88;5068604;28;20216;-83
2022/07/31 08:25:01;;;;;;;2.97;2.15;;;;;;;23.48;54.05;100897.22;5071878;28;20202;-85
2022/07/31 08:27:27;;;;;;;2.75;2.40;;;;;;;23.59;52.92;100896.03;5069388;28;20697;-84
2022/07/31 08:29:56;;;;;;;2.38;2.08;;;;;;;23.67;52.92;100893.28;5070423;28;20278;-83
2022/07/31 08:32:23;;;;;;;3.20;2.20;;;;;;;23.78;52.37;100901.91;5064281;28;20215;-85
2022/07/31 08:34:49;;;;;;;2.35;2.03;;;;;;;23.90;51.86;100894.19;5064138;28;20215;-84
2022/07/31 08:37:19;;;;;;;4.05;2.30;;;;;;;23.97;51.21;100892.47;5070214;28;20231;-85
2022/07/31 08:39:46;;;;;;;2.58;2.00;;;;;;;24.04;51.31;100884.41;5066644;28;20204;-85
2022/07/31 08:42:13;;;;;;;4.03;1.80;;;;;;;24.16;50.51;100891.19;5065477;28;20204;-83
2022/07/31 08:44:40;;;;;;;1.77;1.67;;;;;;;24.26;49.15;100889.09;5073228;28;20200;-85
2022/07/31 08:47:08;;;;;;;2.72;1.63;;;;;;;24.31;48.90;100889.41;5067409;28;20212;-85
2022/07/31 08:49:39;;;;;;;2.38;1.80;;;;;;;24.38;48.36;100881.34;5063962;28;20922;-86
2022/07/31 08:52:08;;;;;;;3.72;2.10;;;;;;;24.46;48.33;100879.41;5065314;28;20778;-85
2022/07/31 08:54:37;;;;;;;3.10;2.00;;;;;;;24.55;48.26;100880.19;5064178;28;20209;-84
2022/07/31 08:57:04;;;;;;;2.50;2.00;;;;;;;24.62;48.00;100881.16;5066878;28;20590;-86
2022/07/31 08:59:31;;;;;;;2.83;2.05;;;;;;;24.69;47.85;100879.41;5068241;28;20206;-85
2022/07/31 09:01:58;;;;;;;3.15;2.10;;;;;;;24.77;47.38;100887.50;5071163;28;20212;-85
2022/07/31 09:04:24;;;;;;;2.42;1.70;;;;;;;24.84;46.84;100874.84;5073848;28;20212;-86
2022/07/31 09:06:51;;;;;;;6.13;2.00;;;;;;;24.93;46.92;100870.16;5067202;28;20204;-86
2022/07/31 09:09:18;;;;;;;4.65;1.75;;;;;;;25.04;46.37;100872.47;5073436;28;20217;-86
2022/07/31 09:11:50;;;;;;;2.50;1.65;;;;;;;25.12;45.82;100869.66;5072651;28;20296;-85
2022/07/31 09:14:25;;;;;;;3.13;1.80;;;;;;;25.23;45.40;100871.09;5067658;28;20287;-84
2022/07/31 09:16:53;;;;;;;3.33;1.90;;;;;;;25.29;44.77;100866.75;5068936;28;20201;-85
2022/07/31 09:19:20;;;;;;;2.85;1.95;;;;;;;25.37;44.60;100866.69;5073863;28;21564;-84
2022/07/31 09:21:47;;;;;;;1.98;1.50;;;;;;;25.45;43.98;100861.09;5067726;28;20299;-85
2022/07/31 09:24:26;;;;;;;3.22;1.80;;;;;;;25.52;44.29;100852.00;5069371;28;20197;-85
2022/07/31 09:27:02;;;;;;;1.88;1.63;;;;;;;25.57;43.73;100857.75;5065081;28;20212;-85
2022/07/31 09:29:40;;;;;;;3.17;1.70;;;;;;;25.64;43.45;100849.66;5071542;28;20210;-84
2022/07/31 09:32:08;;;;;;;1.88;1.70;;;;;;;25.70;43.14;100853.50;5065828;28;20362;-85
2022/07/31 09:34:38;;;;;;;3.00;1.77;;;;;;;25.74;42.87;100847.50;5065635;28;20239;-85
2022/07/31 09:37:09;;;;;;;2.80;1.92;;;;;;;25.80;42.63;100849.44;5074162;28;20243;-85
2022/07/31 09:39:37;;;;;;;1.95;1.70;;;;;;;25.87;41.75;100846.78;5070633;28;20202;-84
2022/07/31 09:42:05;;;;;;;3.30;1.48;;;;;;;25.89;40.85;100848.31;5068437;28;20204;-86
2022/07/31 09:44:39;;;;;;;1.80;1.48;;;;;;;25.91;40.89;100843.50;5066401;28;20215;-86
2022/07/31 09:47:07;;;;;;;4.70;2.15;;;;;;;25.96;41.05;100845.66;5066298;28;20200;-86
2022/07/31 09:49:34;;;;;;;3.45;2.05;;;;;;;26.04;41.11;100845.53;5069598;28;20248;-85
2022/07/31 09:52:01;;;;;;;4.18;1.88;;;;;;;26.12;41.33;100845.41;5071066;28;20205;-84
2022/07/31 09:54:30;;;;;;;2.05;1.38;;;;;;;26.18;41.13;100843.78;5067652;28;20207;-86
2022/07/31 09:56:57;;;;;;;3.13;1.98;;;;;;;26.24;41.11;100832.94;5072069;28;20651;-86
2022/07/31 09:59:26;;;;;;;2.38;1.63;;;;;;;26.32;40.77;100840.19;5075450;28;20193;-86
2022/07/31 10:01:53;;;;;;;2.60;1.88;;;;;;;26.37;40.85;100831.41;5066210;28;20243;-86
2022/07/31 10:04:22;;;;;;;2.47;1.92;;;;;;;26.44;40.56;100824.97;5073633;28;20204;-86
2022/07/31 10:06:51;;;;;;;4.05;1.73;;;;;;;26.54;40.83;100827.34;5069187;28;20744;-86
2022/07/31 10:09:20;;;;;;;1.70;1.58;;;;;;;26.64;40.47;100814.22;5072016;28;20230;-86
2022/07/31 10:11:49;;;;;;;3.42;2.10;;;;;;;26.74;40.50;100809.25;5066068;28;20250;-86
2022/07/31 10:14:20;;;;;;;3.97;1.98;;;;;;;26.87;40.32;100806.59;5065486;28;20594;-85
2022/07/31 10:16:51;;;;;;;4.43;2.00;;;;;;;27.02;40.22;100806.53;5072697;28;20215;-83
2022/07/31 10:19:19;;;;;;;2.67;1.70;;;;;;;27.15;39.69;100806.63;5067535;28;20207;-85
2022/07/31 10:21:54;;;;;;;2.38;2.00;;;;;;;27.24;39.28;100796.34;5065220;28;20224;-84
2022/07/31 10:24:23;;;;;;;4.28;2.17;;;;;;;27.35;38.95;100804.00;5067482;28;20204;-85
2022/07/31 10:26:51;;;;;;;4.18;2.00;;;;;;;27.45;38.43;100795.41;5062374;28;20264;-85
2022/07/31 10:29:18;;;;;;;2.70;1.90;;;;;;;27.49;37.39;100794.78;5063565;28;20225;-85
2022/07/31 10:31:46;;;;;;;4.10;2.10;;;;;;;27.53;37.23;100793.34;5064895;28;20264;-85
2022/07/31 10:34:15;;;;;;;3.92;2.05;;;;;;;27.60;37.36;100796.13;5064781;28;20237;-85
2022/07/31 10:36:45;;;;;;;1.77;1.67;;;;;;;27.61;37.53;100795.91;5065692;28;20254;-85
2022/07/31 10:39:20;;;;;;;5.00;2.03;;;;;;;27.60;37.54;100783.28;5064751;28;20207;-86
2022/07/31 10:41:54;;;;;;;4.28;2.10;;;;;;;27.62;37.72;100774.88;5060106;28;20231;-86
2022/07/31 10:44:31;;;;;;;2.08;1.88;;;;;;;27.72;37.78;100780.81;5065724;28;20206;-85
2022/07/31 10:46:57;;;;;;;2.75;2.10;;;;;;;27.79;37.85;100772.59;5060867;28;20201;-86
2022/07/31 10:49:40;;;;;;;2.85;1.85;;;;;;;27.86;37.71;100768.00;5061256;28;20678;-85
2022/07/31 10:52:07;;;;;;;2.47;2.05;;;;;;;27.85;37.52;100775.38;5058332;28;20612;-85
2022/07/31 10:54:42;;;;;;;6.47;2.35;;;;;;;27.80;38.09;100763.34;5066780;28;20204;-84
2022/07/31 10:57:09;;;;;;;2.90;2.08;;;;;;;27.83;38.02;100771.16;5067011;28;20203;-85
2022/07/31 10:59:36;;;;;;;2.25;2.08;;;;;;;27.87;38.03;100772.44;5067831;28;20686;-86
2022/07/31 11:02:03;;;;;;;2.95;2.40;;;;;;;27.90;38.49;100775.59;5061132;28;20308;-86
2022/07/31 11:04:31;;;;;;;2.33;2.05;;;;;;;27.97;38.09;100767.38;5068841;28;20229;-85
2022/07/31 11:07:00;;;;;;;3.05;1.85;;;;;;;28.03;37.92;100761.09;5061268;28;20201;-85
2022/07/31 11:09:28;;;;;;;3.67;1.92;;;;;;;28.07;37.52;100761.53;5065578;28;20217;-85
2022/07/31 11:11:55;;;;;;;2.33;2.13;;;;;;;28.06;37.35;100757.94;5065436;28;20211;-84
2022/07/31 11:14:32;;;;;;;3.20;1.75;;;;;;;28.10;37.83;100751.00;5065329;28;20291;-86
2022/07/31 11:16:59;;;;;;;4.50;2.22;;;;;;;28.13;37.89;100750.56;5068857;28;20211;-84
2022/07/31 11:19:36;;;;;;;3.00;1.80;;;;;;;28.16;37.67;100746.56;5068907;28;20200;-85
2022/07/31 11:22:11;;;;;;;5.95;2.17;;;;;;;28.17;37.00;100738.13;5068786;28;20200;-84
2022/07/31 11:24:38;;;;;;;3.42;1.70;;;;;;;28.19;36.71;100735.19;5069901;28;20303;-85
2022/07/31 11:27:05;;;;;;;2.03;1.50;;;;;;;28.24;35.91;100739.03;5064864;28;20205;-85
2022/07/31 11:29:34;;;;;;;3.10;2.28;;;;;;;28.34;35.68;100738.59;5063725;28;20229;-86
2022/07/31 11:32:11;;;;;;;3.80;1.63;;;;;;;28.44;35.69;100730.81;5062378;28;20740;-86